createdAt,value
2019-02-04T00:00:39.933Z,1021.12
2019-02-04T00:01:39.878Z,1021.10
2019-02-04T00:02:39.856Z,1021.10
2019-02-04T00:03:39.783Z,1021.08
2019-02-04T00:04:39.779Z,1021.10
2019-02-04T00:05:39.684Z,1021.13
2019-02-04T00:06:39.739Z,1021.18
2019-02-04T00:07:39.593Z,1021.17
2019-02-04T00:08:39.552Z,1021.23
2019-02-04T00:09:39.524Z,1021.21
2019-02-04T00:10:39.456Z,1021.23
2019-02-04T00:11:39.417Z,1021.23
2019-02-04T00:12:39.345Z,1021.20
2019-02-04T00:13:39.333Z,1021.22
2019-02-04T00:14:39.260Z,1021.21
2019-02-04T00:15:39.202Z,1021.19
2019-02-04T00:16:40.874Z,1021.19
2019-02-04T00:17:39.110Z,1021.18
2019-02-04T00:18:39.093Z,1021.20
2019-02-04T00:19:39.018Z,1021.25
2019-02-04T00:20:38.972Z,1021.24
2019-02-04T00:21:38.924Z,1021.25
2019-02-04T00:22:38.874Z,1021.24
2019-02-04T00:23:38.824Z,1021.21
2019-02-04T00:24:38.796Z,1021.22
2019-02-04T00:25:38.735Z,1021.24
2019-02-04T00:26:38.679Z,1021.27
2019-02-04T00:27:38.635Z,1021.28
2019-02-04T00:28:38.591Z,1021.30
2019-02-04T00:29:38.559Z,1021.34
2019-02-04T00:30:38.488Z,1021.39
2019-02-04T00:31:38.444Z,1021.37
2019-02-04T00:32:38.396Z,1021.39
2019-02-04T00:33:38.348Z,1021.36
2019-02-04T00:34:38.330Z,1021.34
2019-02-04T00:35:38.244Z,1021.33
2019-02-04T00:36:38.196Z,1021.40
2019-02-04T00:37:38.148Z,1021.38
2019-02-04T00:38:38.103Z,1021.43
2019-02-04T00:39:38.063Z,1021.45
2019-02-04T00:40:38.044Z,1021.40
2019-02-04T00:41:37.964Z,1021.40
2019-02-04T00:42:37.919Z,1021.40
2019-02-04T00:43:37.863Z,1021.39
2019-02-04T00:44:37.816Z,1021.39
2019-02-04T00:45:37.767Z,1021.40
2019-02-04T00:46:37.747Z,1021.37
2019-02-04T00:47:37.668Z,1021.38
2019-02-04T00:48:37.620Z,1021.43
2019-02-04T00:49:37.570Z,1021.42
2019-02-04T00:50:37.542Z,1021.42
2019-02-04T00:51:37.484Z,1021.42
2019-02-04T00:52:37.439Z,1021.46
2019-02-04T00:53:37.388Z,1021.47
2019-02-04T00:54:37.345Z,1021.43
2019-02-04T00:55:37.311Z,1021.46
2019-02-04T00:56:37.236Z,1021.47
2019-02-04T00:57:37.188Z,1021.49
2019-02-04T00:58:37.140Z,1021.48
2019-02-04T00:59:37.121Z,1021.47
2019-02-04T01:00:37.046Z,1021.51
2019-02-04T01:01:37.001Z,1021.44
2019-02-04T01:02:36.949Z,1021.45
2019-02-04T01:03:36.907Z,1021.43
2019-02-04T01:04:36.856Z,1021.41
2019-02-04T01:05:36.843Z,1021.40
2019-02-04T01:06:36.764Z,1021.37
2019-02-04T01:07:36.702Z,1021.40
2019-02-04T01:08:36.657Z,1021.37
2019-02-04T01:09:36.613Z,1021.39
2019-02-04T01:10:36.565Z,1021.38
2019-02-04T01:11:36.546Z,1021.38
2019-02-04T01:12:36.501Z,1021.43
2019-02-04T01:13:36.420Z,1021.41
2019-02-04T01:14:36.379Z,1021.38
2019-02-04T01:15:36.315Z,1021.43
2019-02-04T01:16:36.270Z,1021.45
2019-02-04T01:17:36.230Z,1021.47
2019-02-04T01:18:36.219Z,1021.51
2019-02-04T01:19:36.127Z,1021.54
2019-02-04T01:20:36.076Z,1021.56
2019-02-04T01:21:36.030Z,1021.58
2019-02-04T01:22:35.981Z,1021.62
2019-02-04T01:23:35.960Z,1021.65
2019-02-04T01:24:35.890Z,1021.63
2019-02-04T01:25:35.843Z,1021.65
2019-02-04T01:26:35.796Z,1021.65
2019-02-04T01:27:35.765Z,1021.67
2019-02-04T01:28:35.718Z,1021.68
2019-02-04T01:29:35.642Z,1021.67
2019-02-04T01:30:35.591Z,1021.65
2019-02-04T01:31:35.548Z,1021.58
2019-02-04T01:32:35.500Z,1021.55
2019-02-04T01:33:35.470Z,1021.59
2019-02-04T01:34:35.397Z,1021.61
2019-02-04T01:35:35.354Z,1021.60
2019-02-04T01:36:35.390Z,1021.63
2019-02-04T01:37:35.259Z,1021.65
2019-02-04T01:38:35.245Z,1021.66
2019-02-04T01:39:35.157Z,1021.66
2019-02-04T01:40:35.111Z,1021.68
2019-02-04T01:41:35.061Z,1021.69
2019-02-04T01:42:35.011Z,1021.75
2019-02-04T01:43:34.972Z,1021.72
2019-02-04T01:44:34.948Z,1021.74
2019-02-04T01:45:34.876Z,1021.72
2019-02-04T01:46:34.826Z,1021.74
2019-02-04T01:47:34.768Z,1021.77
2019-02-04T01:48:34.742Z,1021.79
2019-02-04T01:49:34.707Z,1021.74
2019-02-04T01:50:34.635Z,1021.76
2019-02-04T01:51:34.579Z,1021.79
2019-02-04T01:52:34.527Z,1021.79
2019-02-04T01:53:34.483Z,1021.79
2019-02-04T01:54:34.435Z,1021.81
2019-02-04T01:55:34.412Z,1021.83
2019-02-04T01:56:34.366Z,1021.84
2019-02-04T01:57:34.291Z,1021.87
2019-02-04T01:58:34.249Z,1021.84
2019-02-04T01:59:34.190Z,1021.86
2019-02-04T02:00:34.146Z,1021.85
2019-02-04T02:01:34.112Z,1021.83
2019-02-04T02:02:34.045Z,1021.86
2019-02-04T02:03:33.998Z,1021.87
2019-02-04T02:04:33.956Z,1021.88
2019-02-04T02:05:33.941Z,1021.84
2019-02-04T02:06:33.853Z,1021.88
2019-02-04T02:07:33.814Z,1021.86
2019-02-04T02:08:33.759Z,1021.80
2019-02-04T02:09:33.714Z,1021.77
2019-02-04T02:10:33.664Z,1021.76
2019-02-04T02:11:33.631Z,1021.77
2019-02-04T02:12:33.555Z,1021.75
2019-02-04T02:13:33.510Z,1021.72
2019-02-04T02:14:33.466Z,1021.70
2019-02-04T02:15:33.424Z,1021.69
2019-02-04T02:16:33.404Z,1021.70
2019-02-04T02:17:33.354Z,1021.71
2019-02-04T02:18:33.295Z,1021.70
2019-02-04T02:19:33.226Z,1021.72
2019-02-04T02:20:33.175Z,1021.72
2019-02-04T02:21:33.165Z,1021.70
2019-02-04T02:22:33.094Z,1021.69
2019-02-04T02:23:33.037Z,1021.65
2019-02-04T02:24:32.986Z,1021.66
2019-02-04T02:25:32.935Z,1021.68
2019-02-04T02:26:32.917Z,1021.69
2019-02-04T02:27:32.853Z,1021.69
2019-02-04T02:28:32.797Z,1021.66
2019-02-04T02:29:32.751Z,1021.72
2019-02-04T02:30:32.705Z,1021.67
2019-02-04T02:31:32.641Z,1021.65
2019-02-04T02:32:32.616Z,1021.65
2019-02-04T02:33:32.553Z,1021.63
2019-02-04T02:34:32.512Z,1021.63
2019-02-04T02:35:32.463Z,1021.66
2019-02-04T02:36:32.440Z,1021.62
2019-02-04T02:37:32.354Z,1021.59
2019-02-04T02:38:32.311Z,1021.61
2019-02-04T02:39:32.278Z,1021.61
2019-02-04T02:40:32.218Z,1021.62
2019-02-04T02:41:32.200Z,1021.54
2019-02-04T02:42:32.123Z,1021.55
2019-02-04T02:43:32.073Z,1021.58
2019-02-04T02:44:32.015Z,1021.61
2019-02-04T02:45:31.973Z,1021.58
2019-02-04T02:46:31.923Z,1021.63
2019-02-04T02:47:38.292Z,1021.64
2019-02-04T02:48:31.830Z,1021.63
2019-02-04T02:49:31.784Z,1021.62
2019-02-04T02:50:31.743Z,1021.63
2019-02-04T02:51:31.705Z,1021.67
2019-02-04T02:52:31.635Z,1021.69
2019-02-04T02:53:31.588Z,1021.69
2019-02-04T02:54:31.573Z,1021.70
2019-02-04T02:55:31.491Z,1021.68
2019-02-04T02:56:31.443Z,1021.66
2019-02-04T02:57:31.394Z,1021.68
2019-02-04T02:58:31.346Z,1021.70
2019-02-04T02:59:31.323Z,1021.66
2019-02-04T03:00:31.269Z,1021.71
2019-02-04T03:01:31.214Z,1021.72
2019-02-04T03:02:31.165Z,1021.72
2019-02-04T03:03:31.107Z,1021.75
2019-02-04T03:04:31.081Z,1021.78
2019-02-04T03:05:31.003Z,1021.81
2019-02-04T03:06:30.960Z,1021.81
2019-02-04T03:07:30.946Z,1021.84
2019-02-04T03:08:30.872Z,1021.85
2019-02-04T03:09:30.814Z,1021.83
2019-02-04T03:10:30.768Z,1021.86
2019-02-04T03:11:30.722Z,1021.87
2019-02-04T03:12:30.673Z,1021.89
2019-02-04T03:13:30.656Z,1021.90
2019-02-04T03:14:30.586Z,1021.91
2019-02-04T03:15:30.520Z,1021.91
2019-02-04T03:16:30.477Z,1021.88
2019-02-04T03:19:09.687Z,1021.87
2019-02-04T03:20:17.887Z,1021.88
2019-02-04T03:21:18.901Z,1021.88
2019-02-04T03:22:18.949Z,1021.82
2019-02-04T03:23:19.491Z,1021.79
2019-02-04T03:24:18.034Z,1021.82
2019-02-04T03:25:09.374Z,1021.85
2019-02-04T03:26:09.316Z,1021.82
2019-02-04T03:27:09.267Z,1021.83
2019-02-04T03:28:09.215Z,1021.78
2019-02-04T03:29:18.062Z,1021.80
2019-02-04T03:30:18.576Z,1021.75
2019-02-04T03:31:18.104Z,1021.74
2019-02-04T03:32:19.148Z,1021.73
2019-02-04T03:33:16.724Z,1021.68
2019-02-04T03:34:08.963Z,1021.72
2019-02-04T03:35:08.887Z,1021.70
2019-02-04T03:36:08.836Z,1021.75
2019-02-04T03:37:08.782Z,1021.71
2019-02-04T03:38:08.739Z,1021.71
2019-02-04T03:39:08.720Z,1021.76
2019-02-04T03:40:08.637Z,1021.75
2019-02-04T03:41:08.597Z,1021.80
2019-02-04T03:42:08.548Z,1021.81
2019-02-04T03:43:08.510Z,1021.77
2019-02-04T03:44:08.613Z,1021.80
2019-02-04T03:45:08.398Z,1021.82
2019-02-04T03:46:08.350Z,1021.82
2019-02-04T03:47:08.304Z,1021.76
2019-02-04T03:48:09.494Z,1021.80
2019-02-04T03:49:08.230Z,1021.79
2019-02-04T03:50:08.173Z,1021.81
2019-02-04T03:51:08.103Z,1021.76
2019-02-04T03:52:08.059Z,1021.78
2019-02-04T03:53:08.008Z,1021.76
2019-02-04T03:54:07.960Z,1021.76
2019-02-04T03:55:07.940Z,1021.81
2019-02-04T03:56:07.875Z,1021.76
2019-02-04T03:57:07.853Z,1021.81
2019-02-04T03:58:07.759Z,1021.79
2019-02-04T03:59:07.712Z,1021.83
2019-02-04T04:00:07.699Z,1021.79
2019-02-04T04:01:07.634Z,1021.83
2019-02-04T04:02:07.567Z,1021.87
2019-02-04T04:03:07.534Z,1021.87
2019-02-04T04:04:07.485Z,1021.86
2019-02-04T04:05:07.457Z,1021.85
2019-02-04T04:06:07.394Z,1021.87
2019-02-04T04:07:07.345Z,1021.87
2019-02-04T04:08:07.283Z,1021.88
2019-02-04T04:09:07.233Z,1021.94
2019-02-04T04:10:07.220Z,1021.90
2019-02-04T04:11:07.138Z,1021.96
2019-02-04T04:12:07.097Z,1021.95
2019-02-04T04:13:07.070Z,1021.92
2019-02-04T04:14:07.031Z,1021.93
2019-02-04T04:15:06.973Z,1021.92
2019-02-04T04:16:06.903Z,1021.90
2019-02-04T04:17:06.845Z,1021.91
2019-02-04T04:18:15.336Z,1021.96
2019-02-04T04:19:06.764Z,1021.86
2019-02-04T04:20:06.704Z,1021.88
2019-02-04T04:21:06.654Z,1021.86
2019-02-04T04:22:06.603Z,1021.89
2019-02-04T04:23:06.584Z,1021.87
2019-02-04T04:24:06.513Z,1021.84
2019-02-04T04:25:06.471Z,1021.80
2019-02-04T04:26:06.420Z,1021.84
2019-02-04T04:27:06.369Z,1021.84
2019-02-04T04:28:06.340Z,1021.86
2019-02-04T04:29:06.285Z,1021.87
2019-02-04T04:30:06.233Z,1021.85
2019-02-04T04:31:06.174Z,1021.78
2019-02-04T04:32:06.134Z,1021.76
2019-02-04T04:33:06.143Z,1021.79
2019-02-04T04:34:06.041Z,1021.77
2019-02-04T04:35:05.980Z,1021.78
2019-02-04T04:36:05.952Z,1021.81
2019-02-04T04:37:05.897Z,1021.80
2019-02-04T04:38:05.900Z,1021.79
2019-02-04T04:39:05.792Z,1021.82
2019-02-04T04:40:05.740Z,1021.80
2019-02-04T04:41:05.697Z,1021.78
2019-02-04T04:42:05.682Z,1021.75
2019-02-04T04:43:05.601Z,1021.71
2019-02-04T04:44:05.550Z,1021.73
2019-02-04T04:45:05.541Z,1021.70
2019-02-04T04:46:05.458Z,1021.74
2019-02-04T04:47:05.406Z,1021.72
2019-02-04T04:48:05.348Z,1021.74
2019-02-04T04:49:05.299Z,1021.73
2019-02-04T04:50:05.270Z,1021.75
2019-02-04T04:51:05.244Z,1021.74
2019-02-04T04:52:05.161Z,1021.75
2019-02-04T04:53:05.116Z,1021.72
2019-02-04T04:54:05.067Z,1021.66
2019-02-04T04:55:05.013Z,1021.69
2019-02-04T04:56:04.998Z,1021.74
2019-02-04T04:57:04.940Z,1021.75
2019-02-04T04:58:04.894Z,1021.70
2019-02-04T04:59:04.833Z,1021.74
2019-02-04T05:00:04.765Z,1021.72
2019-02-04T05:01:04.755Z,1021.72
2019-02-04T05:02:04.673Z,1021.73
2019-02-04T05:03:04.663Z,1021.70
2019-02-04T05:04:04.585Z,1021.72
2019-02-04T05:05:04.540Z,1021.71
2019-02-04T05:06:04.504Z,1021.71
2019-02-04T05:07:04.445Z,1021.68
2019-02-04T05:08:04.401Z,1021.67
2019-02-04T05:09:04.351Z,1021.64
2019-02-04T05:10:04.324Z,1021.70
2019-02-04T05:11:04.282Z,1021.69
2019-02-04T05:12:04.190Z,1021.68
2019-02-04T05:13:04.141Z,1021.65
2019-02-04T05:14:04.101Z,1021.71
2019-02-04T05:15:04.060Z,1021.72
2019-02-04T05:16:04.006Z,1021.71
2019-02-04T05:17:03.982Z,1021.71
2019-02-04T05:18:03.906Z,1021.74
2019-02-04T05:19:03.863Z,1021.74
2019-02-04T05:20:03.809Z,1021.72
2019-02-04T05:21:03.759Z,1021.71
2019-02-04T05:22:03.750Z,1021.75
2019-02-04T05:23:03.676Z,1021.77
2019-02-04T05:24:03.617Z,1021.77
2019-02-04T05:25:03.565Z,1021.74
2019-02-04T05:26:03.543Z,1021.78
2019-02-04T05:27:03.467Z,1021.80
2019-02-04T05:28:03.449Z,1021.84
2019-02-04T05:29:03.393Z,1021.84
2019-02-04T05:30:03.335Z,1021.86
2019-02-04T05:31:03.312Z,1021.91
2019-02-04T05:32:03.231Z,1021.88
2019-02-04T05:33:03.191Z,1021.91
2019-02-04T05:34:03.140Z,1021.90
2019-02-04T05:35:03.083Z,1021.91
2019-02-04T05:36:03.071Z,1021.89
2019-02-04T05:37:02.997Z,1021.92
2019-02-04T05:38:02.947Z,1021.93
2019-02-04T05:39:02.927Z,1021.94
2019-02-04T05:40:02.851Z,1021.95
2019-02-04T05:41:02.812Z,1021.98
2019-02-04T05:42:02.749Z,1021.96
2019-02-04T05:43:02.708Z,1021.99
2019-02-04T05:44:02.669Z,1022.00
2019-02-04T05:45:02.605Z,1022.00
2019-02-04T05:46:02.551Z,1022.07
2019-02-04T05:47:02.515Z,1022.06
2019-02-04T05:48:02.471Z,1022.02
2019-02-04T05:49:02.442Z,1022.06
2019-02-04T05:50:02.370Z,1022.00
2019-02-04T05:51:02.318Z,1022.00
2019-02-04T05:52:02.271Z,1021.98
2019-02-04T05:53:02.225Z,1022.03
2019-02-04T05:54:02.172Z,1022.02
2019-02-04T05:55:02.157Z,1022.04
2019-02-04T05:56:02.081Z,1022.01
2019-02-04T05:57:02.029Z,1021.99
2019-02-04T05:58:01.977Z,1021.99
2019-02-04T05:59:01.923Z,1021.98
2019-02-04T06:00:01.905Z,1022.00
2019-02-04T06:01:01.831Z,1022.02
2019-02-04T06:02:01.784Z,1022.03
2019-02-04T06:03:01.735Z,1022.01
2019-02-04T06:04:01.674Z,1021.98
2019-02-04T06:05:01.662Z,1022.00
2019-02-04T06:06:01.622Z,1022.00
2019-02-04T06:07:01.555Z,1021.97
2019-02-04T06:08:01.499Z,1022.03
2019-02-04T06:09:01.453Z,1022.00
2019-02-04T06:10:01.411Z,1021.99
2019-02-04T06:11:01.373Z,1021.97
2019-02-04T06:12:01.307Z,1022.00
2019-02-04T06:13:01.258Z,1022.04
2019-02-04T06:14:01.221Z,1022.01
2019-02-04T06:15:01.160Z,1022.02
2019-02-04T06:16:01.131Z,1022.05
2019-02-04T06:17:01.055Z,1022.01
2019-02-04T06:18:01.038Z,1022.03
2019-02-04T06:19:01.281Z,1021.97
2019-02-04T06:20:02.991Z,1021.95
2019-02-04T06:21:00.889Z,1021.95
2019-02-04T06:22:00.833Z,1021.91
2019-02-04T06:23:00.819Z,1021.94
2019-02-04T06:24:00.710Z,1021.91
2019-02-04T06:25:00.674Z,1021.90
2019-02-04T06:26:00.629Z,1021.93
2019-02-04T06:27:00.587Z,1021.91
2019-02-04T06:28:00.562Z,1021.93
2019-02-04T06:29:00.491Z,1021.91
2019-02-04T06:30:00.434Z,1021.91
2019-02-04T06:31:00.379Z,1021.88
2019-02-04T06:32:00.367Z,1021.87
2019-02-04T06:33:00.322Z,1021.89
2019-02-04T06:34:00.239Z,1021.90
2019-02-04T06:35:00.206Z,1021.93
2019-02-04T06:36:00.154Z,1021.88
2019-02-04T06:37:00.113Z,1021.93
2019-02-04T06:38:00.088Z,1021.90
2019-02-04T06:39:00.001Z,1021.90
2019-02-04T06:39:59.952Z,1021.89
2019-02-04T06:40:59.913Z,1021.91
2019-02-04T06:41:59.898Z,1021.89
2019-02-04T06:42:59.838Z,1021.89
2019-02-04T06:43:59.780Z,1021.88
2019-02-04T06:44:59.706Z,1021.88
2019-02-04T06:45:59.696Z,1021.87
2019-02-04T06:46:59.625Z,1021.83
2019-02-04T06:47:59.582Z,1021.83
2019-02-04T06:48:59.508Z,1021.91
2019-02-04T06:49:59.471Z,1021.89
2019-02-04T06:50:59.435Z,1021.87
2019-02-04T06:51:59.371Z,1021.84
2019-02-04T06:52:59.356Z,1021.84
2019-02-04T06:53:59.311Z,1021.86
2019-02-04T06:54:59.245Z,1021.84
2019-02-04T06:55:59.201Z,1021.81
2019-02-04T06:56:59.142Z,1021.83
2019-02-04T06:57:59.096Z,1021.77
2019-02-04T06:58:59.080Z,1021.82
2019-02-04T06:59:58.990Z,1021.80
2019-02-04T07:00:58.957Z,1021.93
2019-02-04T07:01:58.893Z,1021.83
2019-02-04T07:02:58.870Z,1021.80
2019-02-04T07:03:58.792Z,1021.79
2019-02-04T07:04:58.791Z,1021.75
2019-02-04T07:05:58.718Z,1021.81
2019-02-04T07:06:58.684Z,1021.82
2019-02-04T07:07:58.592Z,1021.81
2019-02-04T07:08:58.694Z,1021.84
2019-02-04T07:09:58.516Z,1021.74
2019-02-04T07:10:58.454Z,1021.81
2019-02-04T07:11:58.416Z,1021.79
2019-02-04T07:12:58.376Z,1021.81
2019-02-04T07:13:58.328Z,1021.88
2019-02-04T07:14:58.282Z,1021.83
2019-02-04T07:15:58.224Z,1021.87
2019-02-04T07:16:58.160Z,1021.83
2019-02-04T07:18:01.810Z,1021.82
2019-02-04T07:18:58.072Z,1021.93
2019-02-04T07:19:58.062Z,1021.92
2019-02-04T07:20:57.971Z,1021.87
2019-02-04T07:21:57.921Z,1021.82
2019-02-04T07:22:57.876Z,1021.78
2019-02-04T07:23:57.843Z,1021.78
2019-02-04T07:24:57.778Z,1021.81
2019-02-04T07:25:57.759Z,1021.87
2019-02-04T07:26:57.714Z,1021.80
2019-02-04T07:27:57.640Z,1021.80
2019-02-04T07:28:57.586Z,1021.82
2019-02-04T07:29:57.563Z,1021.82
2019-02-04T07:30:57.524Z,1021.83
2019-02-04T07:31:57.432Z,1021.77
2019-02-04T07:32:57.409Z,1021.80
2019-02-04T07:33:57.356Z,1021.82
2019-02-04T07:34:57.304Z,1021.83
2019-02-04T07:35:57.289Z,1021.85
2019-02-04T07:36:57.321Z,1021.81
2019-02-04T07:37:57.176Z,1021.86
2019-02-04T07:38:57.162Z,1021.79
2019-02-04T07:39:57.076Z,1021.67
2019-02-04T07:40:57.035Z,1021.74
2019-02-04T07:41:56.968Z,1021.72
2019-02-04T07:42:57.150Z,1021.69
2019-02-04T07:43:56.963Z,1021.67
2019-02-04T07:44:56.847Z,1021.72
2019-02-04T07:45:56.778Z,1021.70
2019-02-04T07:46:56.762Z,1021.73
2019-02-04T07:47:56.704Z,1021.69
2019-02-04T07:48:56.650Z,1021.72
2019-02-04T07:49:56.668Z,1021.67
2019-02-04T07:50:56.601Z,1021.70
2019-02-04T07:51:56.551Z,1021.79
2019-02-04T07:52:56.561Z,1021.76
2019-02-04T07:53:56.377Z,1021.82
2019-02-04T07:54:56.392Z,1021.75
2019-02-04T07:55:56.339Z,1021.79
2019-02-04T07:56:56.254Z,1021.85
2019-02-04T07:57:57.293Z,1021.93
2019-02-04T07:58:56.170Z,1021.89
2019-02-04T07:59:56.114Z,1021.87
2019-02-04T08:00:56.054Z,1021.87
2019-02-04T08:01:56.038Z,1021.92
2019-02-04T08:02:55.996Z,1021.83
2019-02-04T08:03:55.938Z,1021.88
2019-02-04T08:04:55.879Z,1021.87
2019-02-04T08:05:55.948Z,1021.85
2019-02-04T08:06:55.813Z,1021.84
2019-02-04T08:07:55.739Z,1021.80
2019-02-04T08:08:55.708Z,1021.86
2019-02-04T08:09:55.642Z,1021.92
2019-02-04T08:10:55.623Z,1021.92
2019-02-04T08:11:55.539Z,1021.99
2019-02-04T08:13:01.568Z,1022.03
2019-02-04T08:13:55.443Z,1022.06
2019-02-04T08:14:55.394Z,1022.09
2019-02-04T08:15:55.353Z,1022.13
2019-02-04T08:16:55.301Z,1022.10
2019-02-04T08:17:55.278Z,1022.02
2019-02-04T08:18:55.207Z,1022.07
2019-02-04T08:19:55.148Z,1022.08
2019-02-04T08:20:55.112Z,1022.12
2019-02-04T08:21:55.085Z,1022.04
2019-02-04T08:22:55.045Z,1022.07
2019-02-04T08:23:54.977Z,1022.06
2019-02-04T08:24:54.915Z,1022.05
2019-02-04T08:25:54.921Z,1022.01
2019-02-04T08:26:54.831Z,1021.98
2019-02-04T08:27:54.812Z,1021.96
2019-02-04T08:28:54.721Z,1022.04
2019-02-04T08:29:54.768Z,1021.91
2019-02-04T08:30:54.784Z,1021.92
2019-02-04T08:31:54.768Z,1021.94
2019-02-04T08:32:54.580Z,1021.98
2019-02-04T08:33:54.495Z,1021.94
2019-02-04T08:34:54.440Z,1021.92
2019-02-04T08:35:54.398Z,1021.92
2019-02-04T08:36:54.361Z,1021.91
2019-02-04T08:37:54.344Z,1021.92
2019-02-04T08:38:54.300Z,1021.90
2019-02-04T08:39:54.222Z,1021.88
2019-02-04T08:40:54.159Z,1021.85
2019-02-04T08:41:54.154Z,1021.78
2019-02-04T08:42:54.072Z,1021.79
2019-02-04T08:43:54.086Z,1021.76
2019-02-04T08:44:53.994Z,1021.72
2019-02-04T08:45:53.962Z,1021.79
2019-02-04T08:46:53.900Z,1021.81
2019-02-04T08:47:53.874Z,1021.77
2019-02-04T08:48:53.821Z,1021.78
2019-02-04T08:49:58.375Z,1021.74
2019-02-04T08:50:53.745Z,1021.77
2019-02-04T08:51:53.658Z,1021.75
2019-02-04T08:52:53.627Z,1021.74
2019-02-04T08:53:53.607Z,1021.76
2019-02-04T08:54:53.524Z,1021.69
2019-02-04T08:55:53.533Z,1021.79
2019-02-04T08:56:53.490Z,1021.72
2019-02-04T08:57:53.411Z,1021.74
2019-02-04T08:58:53.344Z,1021.75
2019-02-04T08:59:53.307Z,1021.73
2019-02-04T09:00:53.407Z,1021.71
2019-02-04T09:01:53.434Z,1021.76
2019-02-04T09:02:53.154Z,1021.72
2019-02-04T09:03:53.174Z,1021.74
2019-02-04T09:04:53.069Z,1021.65
2019-02-04T09:05:53.022Z,1021.66
2019-02-04T09:06:53.257Z,1021.64
2019-02-04T09:07:52.947Z,1021.68
2019-02-04T09:08:53.343Z,1021.61
2019-02-04T09:09:52.851Z,1021.64
2019-02-04T09:10:52.945Z,1021.64
2019-02-04T09:11:52.810Z,1021.66
2019-02-04T09:12:52.747Z,1021.70
2019-02-04T09:13:52.752Z,1021.62
2019-02-04T09:14:52.676Z,1021.62
2019-02-04T09:15:52.569Z,1021.63
2019-02-04T09:16:52.647Z,1021.60
2019-02-04T09:17:52.500Z,1021.62
2019-02-04T09:18:52.460Z,1021.64
2019-02-04T09:19:52.503Z,1021.58
2019-02-04T09:20:52.428Z,1021.61
2019-02-04T09:21:52.378Z,1021.57
2019-02-04T09:22:52.257Z,1021.66
2019-02-04T09:23:52.226Z,1021.58
2019-02-04T09:24:52.161Z,1021.55
2019-02-04T09:25:52.111Z,1021.49
2019-02-04T09:26:52.085Z,1021.51
2019-02-04T09:27:52.033Z,1021.47
2019-02-04T09:28:51.981Z,1021.52
2019-02-04T09:29:51.951Z,1021.53
2019-02-04T09:30:51.917Z,1021.56
2019-02-04T09:31:51.869Z,1021.56
2019-02-04T09:32:51.774Z,1021.48
2019-02-04T09:33:51.753Z,1021.55
2019-02-04T09:34:51.702Z,1021.51
2019-02-04T09:35:51.659Z,1021.53
2019-02-04T09:36:51.653Z,1021.47
2019-02-04T09:37:51.580Z,1021.48
2019-02-04T09:38:51.500Z,1021.46
2019-02-04T09:39:51.473Z,1021.50
2019-02-04T09:40:51.439Z,1021.48
2019-02-04T09:41:51.409Z,1021.48
2019-02-04T09:42:51.326Z,1021.50
2019-02-04T09:43:51.278Z,1021.49
2019-02-04T09:44:51.235Z,1021.48
2019-02-04T09:45:51.233Z,1021.48
2019-02-04T09:46:51.198Z,1021.43
2019-02-04T09:47:51.112Z,1021.50
2019-02-04T09:48:51.079Z,1021.40
2019-02-04T09:49:51.034Z,1021.45
2019-02-04T09:50:51.030Z,1021.38
2019-02-04T09:51:50.941Z,1021.42
2019-02-04T09:52:50.876Z,1021.41
2019-02-04T09:53:50.844Z,1021.42
2019-02-04T09:54:50.791Z,1021.38
2019-02-04T09:55:50.752Z,1021.39
2019-02-04T09:56:50.715Z,1021.40
2019-02-04T09:57:50.672Z,1021.41
2019-02-04T09:58:50.583Z,1021.37
2019-02-04T09:59:50.638Z,1021.31
2019-02-04T10:00:50.500Z,1021.42
2019-02-04T10:01:50.452Z,1021.32
2019-02-04T10:02:50.447Z,1021.34
2019-02-04T10:03:50.366Z,1021.41
2019-02-04T10:04:50.334Z,1021.39
2019-02-04T10:05:50.312Z,1021.34
2019-02-04T10:06:50.268Z,1021.40
2019-02-04T10:07:50.236Z,1021.43
2019-02-04T10:08:50.152Z,1021.38
2019-02-04T10:09:50.088Z,1021.34
2019-02-04T10:10:50.050Z,1021.39
2019-02-04T10:11:50.021Z,1021.38
2019-02-04T10:12:52.504Z,1021.42
2019-02-04T10:13:49.933Z,1021.36
2019-02-04T10:14:49.907Z,1021.41
2019-02-04T10:15:49.840Z,1021.40
2019-02-04T10:16:49.798Z,1021.42
2019-02-04T10:17:49.819Z,1021.47
2019-02-04T10:18:49.728Z,1021.46
2019-02-04T10:19:49.662Z,1021.43
2019-02-04T10:20:49.653Z,1021.41
2019-02-04T10:21:49.560Z,1021.55
2019-02-04T10:22:49.572Z,1021.48
2019-02-04T10:23:49.482Z,1021.49
2019-02-04T10:24:49.436Z,1021.53
2019-02-04T10:25:49.378Z,1021.53
2019-02-04T10:26:49.341Z,1021.53
2019-02-04T10:27:49.321Z,1021.50
2019-02-04T10:28:49.313Z,1021.41
2019-02-04T10:29:49.209Z,1021.46
2019-02-04T10:30:49.194Z,1021.51
2019-02-04T10:31:49.124Z,1021.48
2019-02-04T10:32:49.061Z,1021.43
2019-02-04T10:33:49.044Z,1021.46
2019-02-04T10:34:49.207Z,1021.45
2019-02-04T10:35:48.950Z,1021.39
2019-02-04T10:36:48.951Z,1021.43
2019-02-04T10:37:48.858Z,1021.41
2019-02-04T10:38:48.819Z,1021.43
2019-02-04T10:39:48.842Z,1021.39
2019-02-04T10:40:48.751Z,1021.42
2019-02-04T10:41:48.711Z,1021.42
2019-02-04T10:42:48.642Z,1021.36
2019-02-04T10:43:48.666Z,1021.38
2019-02-04T10:44:48.571Z,1021.40
2019-02-04T10:45:48.537Z,1021.31
2019-02-04T10:46:48.509Z,1021.31
2019-02-04T10:47:48.409Z,1021.26
2019-02-04T10:48:48.396Z,1021.32
2019-02-04T10:49:48.329Z,1021.24
2019-02-04T10:50:48.306Z,1021.23
2019-02-04T10:51:48.299Z,1021.32
2019-02-04T10:52:48.211Z,1021.29
2019-02-04T10:53:48.161Z,1021.21
2019-02-04T10:54:48.175Z,1021.21
2019-02-04T10:55:48.105Z,1021.19
2019-02-04T10:56:48.055Z,1021.14
2019-02-04T10:57:47.964Z,1021.16
2019-02-04T10:58:47.914Z,1021.21
2019-02-04T10:59:47.920Z,1021.12
2019-02-04T11:00:47.877Z,1021.11
2019-02-04T11:01:47.843Z,1021.08
2019-02-04T11:02:47.813Z,1021.10
2019-02-04T11:03:47.717Z,1021.06
2019-02-04T11:04:47.702Z,1021.07
2019-02-04T11:05:47.624Z,1021.04
2019-02-04T11:06:47.591Z,1021.10
2019-02-04T11:07:47.602Z,1021.07
2019-02-04T11:08:47.535Z,1021.06
2019-02-04T11:09:47.491Z,1021.02
2019-02-04T11:10:47.466Z,1020.99
2019-02-04T11:11:47.383Z,1021.03
2019-02-04T11:12:47.322Z,1021.00
2019-02-04T11:13:47.344Z,1020.98
2019-02-04T11:14:47.230Z,1020.99
2019-02-04T11:15:47.187Z,1020.94
2019-02-04T11:16:47.189Z,1021.03
2019-02-04T11:17:47.137Z,1020.96
2019-02-04T11:18:47.106Z,1020.96
2019-02-04T11:19:47.154Z,1020.90
2019-02-04T11:20:57.557Z,1020.90
2019-02-04T11:21:46.955Z,1020.95
2019-02-04T11:22:46.892Z,1020.85
2019-02-04T11:23:46.871Z,1020.94
2019-02-04T11:24:46.851Z,1020.90
2019-02-04T11:25:46.856Z,1020.91
2019-02-04T11:26:46.770Z,1020.94
2019-02-04T11:27:46.695Z,1020.92
2019-02-04T11:28:46.604Z,1020.90
2019-02-04T11:29:46.607Z,1020.90
2019-02-04T11:30:46.553Z,1020.94
2019-02-04T11:31:46.504Z,1020.94
2019-02-04T11:32:46.505Z,1020.88
2019-02-04T11:33:46.431Z,1020.79
2019-02-04T11:34:49.097Z,1020.90
2019-02-04T11:35:46.358Z,1020.94
2019-02-04T11:36:46.319Z,1020.92
2019-02-04T11:37:46.274Z,1020.90
2019-02-04T11:38:46.240Z,1020.95
2019-02-04T11:39:46.225Z,1020.93
2019-02-04T11:40:46.156Z,1020.88
2019-02-04T11:41:46.089Z,1020.97
2019-02-04T11:42:46.023Z,1020.90
2019-02-04T11:43:46.016Z,1020.89
2019-02-04T11:44:45.987Z,1020.87
2019-02-04T11:45:46.037Z,1020.93
2019-02-04T11:46:45.895Z,1020.89
2019-02-04T11:47:45.855Z,1020.85
2019-02-04T11:48:45.767Z,1020.82
2019-02-04T11:49:45.762Z,1020.77
2019-02-04T11:50:45.678Z,1020.85
2019-02-04T11:51:45.650Z,1020.76
2019-02-04T11:52:45.608Z,1020.78
2019-02-04T11:53:45.574Z,1020.84
2019-02-04T11:54:45.545Z,1020.83
2019-02-04T11:55:45.472Z,1020.85
2019-02-04T11:56:45.429Z,1020.76
2019-02-04T11:57:46.164Z,1020.79
2019-02-04T11:58:45.331Z,1020.75
2019-02-04T11:59:45.303Z,1020.76
2019-02-04T12:00:45.247Z,1020.78
2019-02-04T12:01:45.215Z,1020.82
2019-02-04T12:02:45.194Z,1020.78
2019-02-04T12:03:45.132Z,1020.80
2019-02-04T12:04:45.096Z,1020.76
2019-02-04T12:05:45.057Z,1020.81
2019-02-04T12:06:45.003Z,1020.80